createdAt,value
2019-06-20T00:01:09.940Z,67.25
2019-06-20T00:03:42.621Z,66.83
2019-06-20T00:06:15.611Z,66.71
2019-06-20T00:08:48.203Z,66.95
2019-06-20T00:11:20.981Z,66.07
2019-06-20T00:13:53.850Z,65.60
2019-06-20T00:16:26.532Z,66.70
2019-06-20T00:18:59.315Z,67.04
2019-06-20T00:21:31.831Z,67.19
2019-06-20T00:24:04.246Z,67.57
2019-06-20T00:26:36.945Z,66.73
2019-06-20T00:29:09.554Z,66.42
2019-06-20T00:31:42.410Z,66.26
2019-06-20T00:34:15.291Z,66.06
2019-06-20T00:36:51.155Z,65.27
2019-06-20T00:39:22.456Z,66.20
2019-06-20T00:41:55.181Z,65.66
2019-06-20T00:44:27.907Z,66.96
2019-06-20T00:47:00.647Z,67.84
2019-06-20T00:49:33.424Z,67.79
2019-06-20T00:52:06.401Z,68.25
2019-06-20T00:54:39.470Z,68.39
2019-06-20T00:57:11.862Z,68.43
2019-06-20T00:59:44.836Z,68.90
2019-06-20T01:02:17.457Z,69.35
2019-06-20T01:04:50.105Z,69.77
2019-06-20T01:07:22.755Z,69.83
2019-06-20T01:09:55.701Z,70.05
2019-06-20T01:12:28.524Z,69.44
2019-06-20T01:15:01.349Z,68.75
2019-06-20T01:17:34.192Z,68.03
2019-06-20T01:20:12.211Z,68.45
2019-06-20T01:22:45.217Z,69.13
2019-06-20T01:25:20.725Z,69.42
2019-06-20T01:27:53.201Z,69.92
2019-06-20T01:30:26.021Z,69.75
2019-06-20T01:32:58.651Z,69.58
2019-06-20T01:35:31.179Z,69.45
2019-06-20T01:38:04.226Z,69.21
2019-06-20T01:40:36.826Z,68.85
2019-06-20T01:43:09.776Z,69.17
2019-06-20T01:45:42.420Z,68.97
2019-06-20T01:48:15.045Z,69.12
2019-06-20T01:50:47.671Z,68.88
2019-06-20T01:53:20.170Z,68.43
2019-06-20T01:55:52.714Z,68.14
2019-06-20T01:58:25.236Z,68.47
2019-06-20T02:00:58.802Z,68.61
2019-06-20T02:03:32.040Z,68.60
2019-06-20T02:06:05.234Z,68.36
2019-06-20T02:08:37.696Z,68.91
2019-06-20T02:11:10.336Z,69.08
2019-06-20T02:13:44.101Z,68.87
2019-06-20T02:16:16.716Z,69.37
2019-06-20T02:18:49.366Z,69.47
2019-06-20T02:21:22.099Z,69.21
2019-06-20T02:23:54.735Z,69.00
2019-06-20T02:26:27.421Z,68.89
2019-06-20T02:28:59.976Z,68.77
2019-06-20T02:31:32.702Z,68.75
2019-06-20T02:34:05.392Z,68.01
2019-06-20T02:36:37.956Z,67.91
2019-06-20T02:39:10.477Z,67.82
2019-06-20T02:41:43.169Z,67.92
2019-06-20T02:44:29.029Z,68.37
2019-06-20T02:46:51.177Z,67.68
2019-06-20T02:49:23.906Z,68.31
2019-06-20T02:51:56.709Z,69.35
2019-06-20T02:54:29.296Z,68.96
2019-06-20T02:57:02.070Z,68.57
2019-06-20T02:59:34.958Z,68.04
2019-06-20T03:02:07.707Z,67.35
2019-06-20T03:04:40.548Z,67.42
2019-06-20T03:07:13.531Z,69.67
2019-06-20T03:09:46.344Z,70.23
2019-06-20T03:12:19.247Z,70.32
2019-06-20T03:14:51.984Z,70.70
2019-06-20T03:17:24.686Z,70.65
2019-06-20T03:19:57.156Z,70.43
2019-06-20T03:22:29.646Z,70.88
2019-06-20T03:25:02.541Z,70.82
2019-06-20T03:27:35.468Z,70.48
2019-06-20T03:30:08.882Z,70.29
2019-06-20T03:32:41.897Z,70.27
2019-06-20T03:35:14.885Z,70.18
2019-06-20T03:37:50.197Z,69.52
2019-06-20T03:40:22.370Z,68.56
2019-06-20T03:42:55.069Z,68.56
2019-06-20T03:45:27.922Z,68.22
2019-06-20T03:48:00.736Z,68.15
2019-06-20T03:50:33.498Z,68.48
2019-06-20T03:53:06.400Z,67.07
2019-06-20T03:55:39.145Z,65.77
2019-06-20T03:58:11.788Z,65.00
2019-06-20T04:00:44.305Z,65.01
2019-06-20T04:03:16.936Z,66.12
2019-06-20T04:05:49.620Z,66.59
2019-06-20T04:08:22.251Z,65.40
2019-06-20T04:10:54.774Z,62.39
2019-06-20T04:13:27.365Z,58.26
2019-06-20T04:16:00.065Z,54.83
2019-06-20T04:18:32.661Z,52.95
2019-06-20T04:21:05.626Z,54.71
2019-06-20T04:23:38.170Z,55.87
2019-06-20T04:26:10.717Z,53.66
2019-06-20T04:28:43.384Z,47.22
2019-06-20T04:31:15.885Z,42.54
2019-06-20T04:33:48.535Z,41.72
2019-06-20T04:36:21.339Z,39.63
2019-06-20T04:38:53.861Z,41.78
2019-06-20T04:41:26.507Z,43.53
2019-06-20T04:43:58.966Z,42.63
2019-06-20T04:46:46.609Z,41.82
2019-06-20T04:49:19.923Z,37.38
2019-06-20T04:51:52.965Z,34.44
2019-06-20T04:54:25.605Z,35.03
2019-06-20T04:56:58.136Z,32.46
2019-06-20T04:59:30.809Z,33.96
2019-06-20T05:02:03.439Z,33.67
2019-06-20T05:04:35.985Z,38.34
2019-06-20T05:07:13.161Z,40.61
2019-06-20T05:09:45.910Z,38.95
2019-06-20T05:12:18.639Z,32.79
2019-06-20T05:14:54.265Z,29.57
2019-06-20T05:17:26.836Z,26.77
2019-06-20T05:19:59.521Z,25.27
2019-06-20T05:22:32.270Z,23.90
2019-06-20T05:25:05.781Z,23.15
2019-06-20T05:27:38.456Z,22.92
2019-06-20T05:30:15.002Z,23.00
2019-06-20T05:32:47.832Z,23.07
2019-06-20T05:35:20.713Z,23.22
2019-06-20T05:37:53.503Z,23.54
2019-06-20T05:40:26.606Z,24.47
2019-06-20T05:42:59.261Z,26.10
2019-06-20T05:45:32.156Z,27.58
2019-06-20T05:48:05.407Z,27.97
2019-06-20T05:50:37.913Z,28.91
2019-06-20T05:53:10.744Z,29.94
2019-06-20T05:55:43.483Z,30.31
2019-06-20T05:58:16.376Z,30.55
2019-06-20T06:00:48.873Z,30.31
2019-06-20T06:03:21.676Z,31.78
2019-06-20T06:05:54.686Z,30.92
2019-06-20T06:08:27.765Z,31.40
2019-06-20T06:11:00.375Z,31.59
2019-06-20T06:13:33.000Z,30.68
2019-06-20T06:16:05.741Z,31.35
2019-06-20T06:18:38.480Z,30.41
2019-06-20T06:21:11.115Z,30.36
2019-06-20T06:23:44.023Z,29.47
2019-06-20T06:26:18.296Z,29.95
2019-06-20T06:28:51.231Z,30.88
2019-06-20T06:31:23.741Z,30.76
2019-06-20T06:33:57.328Z,31.38
2019-06-20T06:36:29.840Z,30.83
2019-06-20T06:39:02.600Z,30.62
2019-06-20T06:41:36.530Z,30.59
2019-06-20T06:44:09.405Z,30.42
2019-06-20T06:46:47.223Z,30.71
2019-06-20T06:49:16.180Z,30.86
2019-06-20T06:51:49.186Z,30.47
2019-06-20T06:54:21.871Z,30.14
2019-06-20T06:56:54.651Z,30.31
2019-06-20T06:59:27.429Z,30.35
2019-06-20T07:02:00.313Z,30.90
2019-06-20T07:04:32.881Z,30.82
2019-06-20T07:07:05.725Z,30.40
2019-06-20T07:09:38.335Z,30.39
2019-06-20T07:12:11.151Z,30.80
2019-06-20T07:14:43.706Z,30.54
2019-06-20T07:17:16.526Z,30.08
2019-06-20T07:19:49.487Z,31.04
2019-06-20T07:22:22.321Z,29.97
2019-06-20T07:24:55.256Z,29.75
2019-06-20T07:27:28.334Z,29.85
2019-06-20T07:30:00.862Z,30.62
2019-06-20T07:32:33.681Z,30.51
2019-06-20T07:35:08.180Z,30.35
2019-06-20T07:37:40.855Z,29.73
2019-06-20T07:40:14.885Z,30.28
2019-06-20T07:42:47.790Z,29.87
2019-06-20T07:45:27.272Z,29.28
2019-06-20T07:47:59.387Z,29.64
2019-06-20T07:50:32.481Z,29.92
2019-06-20T07:53:05.336Z,30.04
2019-06-20T07:55:38.177Z,30.94
2019-06-20T07:58:10.905Z,30.69
2019-06-20T08:00:43.665Z,29.32
2019-06-20T08:03:16.272Z,29.62
2019-06-20T08:05:49.281Z,29.05
2019-06-20T08:08:23.176Z,29.56
2019-06-20T08:10:56.120Z,28.09
2019-06-20T08:13:28.896Z,28.82
2019-06-20T08:16:03.915Z,28.32
2019-06-20T08:18:37.408Z,28.56
2019-06-20T08:21:10.281Z,27.62
2019-06-20T08:23:42.905Z,27.27
2019-06-20T08:26:15.781Z,27.84
2019-06-20T08:28:48.210Z,27.22
2019-06-20T08:31:21.041Z,27.08
2019-06-20T08:33:53.776Z,26.61
2019-06-20T08:36:26.402Z,26.72
2019-06-20T08:39:00.263Z,26.80
2019-06-20T08:41:33.895Z,26.30
2019-06-20T08:44:08.463Z,25.64
2019-06-20T08:46:41.318Z,25.80
2019-06-20T08:49:14.170Z,25.25
2019-06-20T08:51:46.971Z,25.31
2019-06-20T08:54:19.747Z,26.37
2019-06-20T08:56:52.530Z,25.81
2019-06-20T08:59:25.296Z,25.44
2019-06-20T09:01:59.989Z,25.02
2019-06-20T09:04:32.066Z,24.33
2019-06-20T09:09:37.631Z,22.71
2019-06-20T09:12:10.381Z,22.84
2019-06-20T09:14:43.251Z,23.78
2019-06-20T09:17:16.203Z,23.65
2019-06-20T09:19:48.872Z,23.74
2019-06-20T09:22:22.431Z,22.96
2019-06-20T09:24:56.829Z,23.62
2019-06-20T09:27:29.747Z,22.69
2019-06-20T09:30:03.515Z,22.83
2019-06-20T09:32:36.631Z,22.53
2019-06-20T09:35:12.296Z,22.09
2019-06-20T09:37:45.093Z,21.97
2019-06-20T09:40:21.780Z,21.74
2019-06-20T09:42:54.816Z,22.61
2019-06-20T09:45:27.873Z,22.28
2019-06-20T09:48:00.782Z,22.86
2019-06-20T09:50:33.769Z,22.80
2019-06-20T09:53:06.408Z,23.23
2019-06-20T09:55:39.685Z,22.85
2019-06-20T09:58:12.784Z,22.87
2019-06-20T10:00:47.604Z,23.31
2019-06-20T10:03:20.072Z,22.77
2019-06-20T10:05:52.730Z,22.86
2019-06-20T10:08:25.466Z,23.21
2019-06-20T10:10:58.525Z,22.83
2019-06-20T10:13:32.741Z,23.27
2019-06-20T10:16:06.651Z,23.51
2019-06-20T10:18:39.302Z,23.62
2019-06-20T10:21:12.222Z,23.56
2019-06-20T10:23:46.187Z,23.47
2019-06-20T10:26:19.542Z,23.78
2019-06-20T10:28:53.105Z,22.71
2019-06-20T10:31:25.760Z,23.14
2019-06-20T10:33:58.421Z,22.83
2019-06-20T10:36:31.182Z,23.01
2019-06-20T10:39:04.620Z,22.29
2019-06-20T10:41:37.246Z,22.98
2019-06-20T10:44:09.940Z,22.79
2019-06-20T10:46:42.829Z,23.07
2019-06-20T10:49:17.257Z,22.78
2019-06-20T10:51:49.790Z,22.95
2019-06-20T10:54:22.707Z,22.93
2019-06-20T10:56:55.555Z,24.12
2019-06-20T10:59:28.256Z,25.46
2019-06-20T11:02:00.805Z,24.14
2019-06-20T11:04:33.696Z,24.63
2019-06-20T11:07:06.310Z,23.57
2019-06-20T11:09:41.180Z,23.54
2019-06-20T11:12:14.219Z,22.68
2019-06-20T11:14:46.870Z,22.79
2019-06-20T11:17:19.505Z,22.31
2019-06-20T11:19:52.432Z,22.29
2019-06-20T11:22:24.988Z,21.48
2019-06-20T11:24:57.851Z,21.95
2019-06-20T11:27:31.101Z,22.10
2019-06-20T11:30:05.052Z,23.70
2019-06-20T11:32:38.234Z,23.67
2019-06-20T11:35:12.510Z,24.20
2019-06-20T11:37:45.347Z,23.32
2019-06-20T11:40:18.242Z,23.72
2019-06-20T11:42:50.955Z,23.02
2019-06-20T11:45:24.891Z,22.50
2019-06-20T11:47:57.635Z,23.03
2019-06-20T11:50:30.921Z,22.35
2019-06-20T11:53:03.565Z,21.92
2019-06-20T11:55:36.181Z,21.68
2019-06-20T11:58:09.151Z,22.03
2019-06-20T12:00:41.731Z,22.31
2019-06-20T12:03:14.255Z,21.91
2019-06-20T12:05:47.365Z,21.77
2019-06-20T12:08:20.139Z,24.06
2019-06-20T12:10:52.936Z,23.58
2019-06-20T12:13:25.466Z,23.01
2019-06-20T12:15:58.241Z,21.53
2019-06-20T12:18:31.026Z,21.65
2019-06-20T12:21:03.857Z,21.40
2019-06-20T12:23:36.182Z,20.77
2019-06-20T12:26:09.376Z,21.93
2019-06-20T12:28:42.316Z,21.77
2019-06-20T12:31:19.528Z,22.80
2019-06-20T12:33:49.880Z,23.00
2019-06-20T12:36:22.486Z,24.13
2019-06-20T12:38:55.410Z,25.19
2019-06-20T12:41:28.229Z,26.09
2019-06-20T12:44:01.040Z,25.48
2019-06-20T12:46:33.650Z,24.93
2019-06-20T12:49:06.383Z,23.75
2019-06-20T12:51:40.402Z,23.82
2019-06-20T12:54:13.622Z,22.99
2019-06-20T12:56:46.555Z,23.19
2019-06-20T12:59:19.360Z,23.33
2019-06-20T13:01:52.312Z,22.23
2019-06-20T13:04:24.865Z,22.38
2019-06-20T13:06:57.711Z,22.59
2019-06-20T13:09:30.455Z,22.86
2019-06-20T13:12:03.262Z,23.63
2019-06-20T13:14:36.116Z,24.90
2019-06-20T13:17:08.565Z,25.59
2019-06-20T13:19:41.991Z,25.57
2019-06-20T13:22:15.390Z,25.52
2019-06-20T13:24:47.805Z,25.42
2019-06-20T13:27:20.345Z,24.42
2019-06-20T13:29:53.311Z,24.14
2019-06-20T13:32:26.211Z,24.18
2019-06-20T13:34:59.152Z,23.27
2019-06-20T13:37:32.113Z,23.74
2019-06-20T13:40:07.966Z,23.29
2019-06-20T13:42:43.703Z,22.05
2019-06-20T13:45:25.640Z,23.30
2019-06-20T13:47:58.455Z,23.88
2019-06-20T13:50:31.451Z,24.87
2019-06-20T13:53:04.560Z,25.21
2019-06-20T13:55:37.336Z,26.10
2019-06-20T13:58:10.235Z,25.28
2019-06-20T14:00:45.372Z,25.77
2019-06-20T14:03:17.678Z,25.80
2019-06-20T14:05:51.731Z,25.00
2019-06-20T14:08:25.041Z,25.47
2019-06-20T14:10:57.917Z,26.60
2019-06-20T14:13:30.523Z,26.34
2019-06-20T14:16:03.253Z,27.05
2019-06-20T14:18:36.094Z,27.41
2019-06-20T14:21:10.348Z,27.78
2019-06-20T14:23:44.711Z,27.21
2019-06-20T14:26:17.296Z,28.07
2019-06-20T14:28:51.082Z,28.62
2019-06-20T14:31:23.852Z,28.89
2019-06-20T14:33:56.400Z,29.00
2019-06-20T14:36:29.370Z,29.59
2019-06-20T14:39:02.201Z,29.28
2019-06-20T14:41:36.606Z,29.26
2019-06-20T14:44:09.450Z,29.18
2019-06-20T14:46:42.175Z,30.16
2019-06-20T14:49:15.024Z,30.41
2019-06-20T14:51:48.488Z,31.48
2019-06-20T14:54:21.386Z,34.57
2019-06-20T14:56:54.115Z,37.70
2019-06-20T14:59:26.835Z,46.12
2019-06-20T15:01:59.531Z,47.49
2019-06-20T15:04:32.407Z,50.26
2019-06-20T15:07:05.811Z,52.38
2019-06-20T15:09:38.518Z,55.82
2019-06-20T15:12:11.176Z,58.17
2019-06-20T15:14:45.804Z,60.90
2019-06-20T15:17:18.732Z,60.95
2019-06-20T15:19:51.467Z,60.37
2019-06-20T15:22:24.202Z,62.74
2019-06-20T15:24:57.224Z,61.54
2019-06-20T15:27:31.134Z,64.85
2019-06-20T15:30:05.575Z,64.08
2019-06-20T15:32:53.049Z,67.12
2019-06-20T15:35:14.012Z,66.22
2019-06-20T15:37:48.372Z,65.15
2019-06-20T15:40:21.251Z,70.13
2019-06-20T15:42:55.402Z,68.17
2019-06-20T15:45:28.770Z,65.11
2019-06-20T15:48:02.166Z,64.86
2019-06-20T15:50:34.845Z,65.18
2019-06-20T15:53:07.670Z,62.82
2019-06-20T15:55:40.640Z,60.24
2019-06-20T15:58:13.530Z,62.42
2019-06-20T16:00:46.430Z,58.69
2019-06-20T16:03:19.725Z,57.03
2019-06-20T16:05:52.713Z,60.25
2019-06-20T16:08:25.717Z,61.07
2019-06-20T16:10:58.515Z,64.24
2019-06-20T16:13:31.354Z,63.20
2019-06-20T16:16:04.401Z,65.16
2019-06-20T16:18:37.113Z,64.04
2019-06-20T16:21:09.572Z,63.47
2019-06-20T16:23:42.391Z,62.63
2019-06-20T16:26:14.995Z,63.36
2019-06-20T16:28:47.807Z,62.34
2019-06-20T16:31:26.685Z,61.91
2019-06-20T16:33:55.097Z,59.75
2019-06-20T16:36:27.777Z,59.70
2019-06-20T16:39:00.412Z,57.83
2019-06-20T16:41:34.685Z,57.47
2019-06-20T16:44:07.866Z,60.02
2019-06-20T16:46:40.961Z,60.01
2019-06-20T16:49:13.920Z,60.89
2019-06-20T16:51:46.905Z,61.76
2019-06-20T16:54:19.805Z,60.91
2019-06-20T16:56:55.631Z,58.73
2019-06-20T16:59:28.957Z,57.24
2019-06-20T17:02:01.691Z,55.87
2019-06-20T17:04:34.625Z,56.39
2019-06-20T17:07:07.501Z,53.78
2019-06-20T17:09:40.281Z,55.97
2019-06-20T17:12:13.432Z,55.07
2019-06-20T17:14:46.481Z,54.14
2019-06-20T17:17:19.331Z,55.03
2019-06-20T17:19:52.289Z,52.92
2019-06-20T17:22:25.459Z,54.35
2019-06-20T17:24:58.548Z,54.57
2019-06-20T17:27:31.671Z,54.29
2019-06-20T17:30:12.920Z,56.92
2019-06-20T17:32:45.800Z,52.77
2019-06-20T17:35:20.476Z,53.43
2019-06-20T17:37:53.345Z,50.06
2019-06-20T17:40:26.261Z,50.21
2019-06-20T17:42:59.663Z,49.37
2019-06-20T17:45:32.820Z,48.30
2019-06-20T17:48:05.943Z,48.03
2019-06-20T17:50:38.975Z,46.78
2019-06-20T17:53:11.836Z,46.69
2019-06-20T17:55:45.055Z,45.00
2019-06-20T17:58:18.088Z,46.16
2019-06-20T18:00:50.906Z,45.69
2019-06-20T18:03:23.775Z,45.50
2019-06-20T18:05:56.845Z,45.41
2019-06-20T18:08:29.777Z,44.73
2019-06-20T18:11:02.791Z,44.66
2019-06-20T18:13:35.821Z,45.29
2019-06-20T18:16:24.074Z,43.61
2019-06-20T18:18:43.505Z,44.14
2019-06-20T18:21:16.560Z,44.14
2019-06-20T18:23:49.238Z,43.19
2019-06-20T18:26:22.059Z,42.75
2019-06-20T18:28:54.962Z,44.00
2019-06-20T18:31:28.111Z,43.20
2019-06-20T18:34:00.927Z,43.68
2019-06-20T18:36:33.855Z,44.80
2019-06-20T18:39:09.050Z,47.19
2019-06-20T18:41:41.651Z,46.59
2019-06-20T18:44:14.532Z,48.64
2019-06-20T18:46:47.291Z,49.71
2019-06-20T18:49:20.006Z,51.57
2019-06-20T18:51:52.757Z,53.77
2019-06-20T18:54:25.638Z,55.04
2019-06-20T18:56:58.546Z,54.47
2019-06-20T18:59:32.780Z,54.76
2019-06-20T19:02:06.863Z,55.01
2019-06-20T19:04:47.739Z,55.51
2019-06-20T19:07:14.342Z,56.60
2019-06-20T19:09:47.236Z,56.58
2019-06-20T19:12:20.487Z,55.88
2019-06-20T19:14:53.436Z,57.61
2019-06-20T19:17:25.894Z,56.62
2019-06-20T19:19:59.047Z,60.03
2019-06-20T19:22:32.026Z,57.62
2019-06-20T19:25:07.802Z,57.55
2019-06-20T19:27:46.101Z,58.83
2019-06-20T19:30:17.816Z,60.01
2019-06-20T19:32:50.521Z,60.06
2019-06-20T19:35:23.331Z,60.78
2019-06-20T19:37:56.125Z,60.96
2019-06-20T19:40:33.457Z,62.05
2019-06-20T19:43:06.655Z,62.08
2019-06-20T19:45:39.265Z,64.26
2019-06-20T19:48:12.776Z,64.07
2019-06-20T19:50:47.216Z,64.16
2019-06-20T19:53:20.167Z,63.88
2019-06-20T19:55:53.305Z,63.64
2019-06-20T19:58:26.394Z,64.97
2019-06-20T20:00:59.491Z,66.33
2019-06-20T20:03:32.349Z,66.85
2019-06-20T20:06:05.065Z,68.32
2019-06-20T20:08:37.887Z,67.89
2019-06-20T20:11:10.618Z,68.39
2019-06-20T20:13:43.593Z,68.13
2019-06-20T20:16:16.329Z,67.71
2019-06-20T20:18:49.057Z,67.04
2019-06-20T20:21:22.022Z,67.81
2019-06-20T20:23:55.118Z,70.02
2019-06-20T20:26:28.011Z,69.17
2019-06-20T20:29:00.866Z,71.18
2019-06-20T20:31:33.680Z,71.18
2019-06-20T20:34:06.685Z,70.77
2019-06-20T20:36:39.517Z,70.78
2019-06-20T20:39:12.230Z,71.14
2019-06-20T20:41:45.566Z,71.43
2019-06-20T20:44:18.546Z,71.99
2019-06-20T20:46:51.582Z,72.37
2019-06-20T20:49:24.468Z,71.46
2019-06-20T20:51:58.318Z,73.37
2019-06-20T20:54:31.060Z,73.14
2019-06-20T20:57:03.911Z,73.59
2019-06-20T20:59:36.776Z,74.16
2019-06-20T21:02:09.811Z,74.08
2019-06-20T21:04:42.286Z,75.67
2019-06-20T21:07:15.136Z,75.33
2019-06-20T21:09:48.140Z,75.39
2019-06-20T21:12:20.932Z,74.90
2019-06-20T21:14:53.846Z,74.96
2019-06-20T21:17:26.977Z,74.82
2019-06-20T21:20:00.095Z,77.07
2019-06-20T21:22:32.780Z,77.55
2019-06-20T21:25:07.065Z,77.31
2019-06-20T21:27:39.885Z,77.05
2019-06-20T21:30:14.341Z,76.79
2019-06-20T21:32:47.507Z,76.77
2019-06-20T21:35:20.261Z,76.87
2019-06-20T21:37:53.005Z,77.30
2019-06-20T21:40:25.890Z,77.12
2019-06-20T21:42:59.135Z,76.76
2019-06-20T21:45:32.101Z,76.28
2019-06-20T21:48:04.980Z,76.46
2019-06-20T21:50:39.024Z,77.18
2019-06-20T21:53:11.805Z,77.25
2019-06-20T21:55:45.007Z,77.82
2019-06-20T21:58:17.956Z,77.56
2019-06-20T22:00:54.060Z,77.23
2019-06-20T22:03:28.698Z,77.65
2019-06-20T22:06:02.729Z,77.57
2019-06-20T22:08:35.735Z,78.11
2019-06-20T22:11:08.300Z,77.57
2019-06-20T22:13:42.591Z,78.62
2019-06-20T22:16:15.275Z,80.28
2019-06-20T22:18:48.256Z,79.97
2019-06-20T22:21:21.066Z,80.38
2019-06-20T22:23:54.107Z,80.15
2019-06-20T22:26:26.780Z,80.04
2019-06-20T22:28:59.918Z,80.40
2019-06-20T22:31:32.650Z,80.26
2019-06-20T22:34:05.539Z,80.12
2019-06-20T22:36:40.620Z,80.34
2019-06-20T22:39:13.666Z,80.30
2019-06-20T22:41:46.468Z,80.49
2019-06-20T22:44:19.505Z,80.66
2019-06-20T22:46:52.390Z,80.58
2019-06-20T22:49:26.278Z,81.10
2019-06-20T22:51:59.280Z,81.05
2019-06-20T22:54:31.982Z,81.62
2019-06-20T22:57:04.853Z,82.16
2019-06-20T22:59:37.797Z,81.98
2019-06-20T23:02:10.672Z,82.00
2019-06-20T23:04:43.778Z,81.75
2019-06-20T23:07:17.021Z,81.45
2019-06-20T23:09:50.027Z,81.28
2019-06-20T23:12:22.736Z,81.42
2019-06-20T23:14:55.678Z,81.10
2019-06-20T23:17:28.488Z,81.25
2019-06-20T23:20:01.276Z,81.05
2019-06-20T23:22:34.201Z,80.58
2019-06-20T23:25:10.361Z,80.60
2019-06-20T23:27:43.111Z,80.72
2019-06-20T23:30:17.671Z,80.43
2019-06-20T23:32:50.623Z,81.51
2019-06-20T23:35:23.212Z,83.66
2019-06-20T23:37:55.850Z,83.48
2019-06-20T23:40:28.850Z,83.75
2019-06-20T23:43:01.583Z,83.99
2019-06-20T23:45:34.258Z,83.41
2019-06-20T23:48:06.891Z,83.38
2019-06-20T23:50:39.513Z,82.97
2019-06-20T23:53:16.661Z,83.14
2019-06-20T23:55:50.427Z,84.41
2019-06-20T23:58:25.551Z,85.25
